Time;durP1;ratioP1;P1;durP2;ratioP2;P2;SDS_P1;SDS_P2;PMS_P1;PMS_P2;Temp;Humidity;BMP_temperature;BMP_pressure;BME280_temperature;BME280_humidity;BME280_pressure;Samples;Min_cycle;Max_cycle;Signal;HPM_P1;HPM_P2
2023/06/13 00:00:28;;;;;;;13.98;7.88;;;;;;;-143.21;94.51;71443.63;5051276;28;20198;-75
2023/06/13 00:02:55;;;;;;;13.93;8.10;;;;;;;-143.21;94.67;71447.59;5054634;28;20205;-75
2023/06/13 00:05:22;;;;;;;10.82;7.85;;;;;;;-143.21;94.30;71441.63;5046579;28;20703;-77
2023/06/13 00:07:51;;;;;;;12.15;7.55;;;;;;;-143.21;94.73;71453.53;5050664;28;20477;-77
2023/06/13 00:10:18;;;;;;;8.30;7.50;;;;;;;-143.21;95.01;71447.59;5051679;28;20641;-77
2023/06/13 00:12:49;;;;;;;9.93;7.38;;;;;;;-143.21;95.26;71455.53;5055241;28;20228;-76
2023/06/13 00:15:16;;;;;;;9.65;7.75;;;;;;;-143.21;94.26;71447.59;5059125;28;20562;-77
2023/06/13 00:17:45;;;;;;;11.77;7.78;;;;;;;-143.21;94.11;71451.56;5051947;28;20274;-78
2023/06/13 00:20:12;;;;;;;11.25;7.60;;;;;;;-143.21;93.81;71441.63;5052545;28;20237;-78
2023/06/13 00:22:39;;;;;;;11.20;7.80;;;;;;;-143.21;93.27;71443.63;5056018;28;20737;-76
2023/06/13 00:25:08;;;;;;;14.38;8.60;;;;;;;-143.21;94.22;71449.56;5052752;28;20202;-77
2023/06/13 00:27:35;;;;;;;9.30;7.25;;;;;;;-143.21;95.07;71435.69;5052033;28;20210;-77
2023/06/13 00:30:02;;;;;;;18.08;8.68;;;;;;;-143.21;95.23;71439.66;5055964;28;20236;-78
2023/06/13 00:32:29;;;;;;;11.77;7.73;;;;;;;-143.21;95.36;71441.63;5054420;28;20282;-78
2023/06/13 00:34:56;;;;;;;10.93;7.70;;;;;;;-143.21;95.54;71435.69;5052090;28;20237;-77
2023/06/13 00:37:23;;;;;;;11.27;7.28;;;;;;;-143.21;95.32;71447.59;5051778;28;20226;-77
2023/06/13 00:39:50;;;;;;;15.80;8.63;;;;;;;-143.21;95.09;71455.53;5055486;28;20419;-78
2023/06/13 00:42:18;;;;;;;11.63;7.15;;;;;;;-143.21;95.13;71445.59;5055369;28;20224;-78
2023/06/13 00:44:45;;;;;;;13.48;7.28;;;;;;;-143.21;94.98;71437.69;5051688;28;20587;-78
2023/06/13 00:47:13;;;;;;;10.35;7.40;;;;;;;-143.21;95.10;71443.63;5052060;28;20304;-77
2023/06/13 00:49:42;;;;;;;13.25;7.15;;;;;;;-143.21;94.57;71441.63;5054643;28;20229;-77
2023/06/13 00:52:09;;;;;;;19.87;7.50;;;;;;;-143.21;94.88;71435.69;5051592;28;20198;-78
2023/06/13 00:54:37;;;;;;;8.48;6.53;;;;;;;-143.21;94.65;71437.69;5054728;28;20202;-78
2023/06/13 00:57:05;;;;;;;11.32;7.03;;;;;;;-143.21;94.86;71445.59;5051631;28;20234;-79
2023/06/13 00:59:33;;;;;;;13.37;7.60;;;;;;;-143.21;95.20;71433.72;5054596;28;20668;-79
2023/06/13 01:02:03;;;;;;;13.48;7.78;;;;;;;-143.21;94.84;71437.69;5051264;28;20205;-79
2023/06/13 01:04:30;;;;;;;10.57;7.43;;;;;;;-143.21;94.92;71433.72;5051359;28;20253;-79
2023/06/13 01:06:57;;;;;;;13.57;7.28;;;;;;;-143.21;95.64;71437.69;5054155;28;20213;-78
2023/06/13 01:09:25;;;;;;;13.40;7.80;;;;;;;-143.21;95.96;71429.75;5052341;28;20202;-79
2023/06/13 01:12:03;;;;;;;9.05;7.05;;;;;;;-143.21;94.86;71433.72;5053122;28;20202;-85
2023/06/13 01:14:42;;;;;;;12.25;7.70;;;;;;;-143.21;94.09;71439.66;5053668;28;20210;-85
2023/06/13 01:17:15;;;;;;;10.10;7.00;;;;;;;-143.21;94.72;71443.63;5058291;28;20308;-84
2023/06/13 01:19:44;;;;;;;9.48;7.43;;;;;;;-143.21;94.93;71437.69;5068389;28;20201;-85
2023/06/13 01:22:15;;;;;;;10.77;7.33;;;;;;;-143.21;95.25;71443.63;5057902;28;20209;-85
2023/06/13 01:24:52;;;;;;;10.20;8.07;;;;;;;-143.21;95.44;71441.63;5056694;28;20202;-85
2023/06/13 01:27:22;;;;;;;11.83;7.83;;;;;;;-143.21;95.84;71437.69;5053613;28;20216;-85
2023/06/13 01:29:54;;;;;;;15.23;8.40;;;;;;;-143.21;95.89;71441.63;5053738;28;20225;-85
2023/06/13 01:32:23;;;;;;;14.27;8.20;;;;;;;-143.21;95.86;71439.66;5052737;28;20619;-85
2023/06/13 01:34:51;;;;;;;13.10;8.68;;;;;;;-143.21;95.33;71445.59;5052938;28;20204;-85
2023/06/13 01:37:18;;;;;;;13.82;8.38;;;;;;;-143.21;95.03;71437.69;5052746;28;20214;-85
2023/06/13 01:39:45;;;;;;;14.23;8.30;;;;;;;-143.21;95.15;71441.63;5052728;28;20201;-85
2023/06/13 01:42:12;;;;;;;12.50;8.73;;;;;;;-143.21;94.72;71445.59;5052286;28;20221;-84
2023/06/13 01:44:40;;;;;;;13.40;9.07;;;;;;;-143.21;94.70;71445.59;5053074;28;20625;-84
2023/06/13 01:47:17;;;;;;;16.40;8.60;;;;;;;-143.21;94.87;71449.56;5052878;28;20202;-83
2023/06/13 01:49:54;;;;;;;13.87;8.43;;;;;;;-143.21;94.87;71451.56;5048791;28;20198;-78
2023/06/13 01:52:27;;;;;;;10.83;8.90;;;;;;;-143.21;94.88;71453.53;5051147;28;20209;-77
2023/06/13 01:55:00;;;;;;;11.75;8.38;;;;;;;-143.21;94.86;71457.50;5053395;28;20629;-77
2023/06/13 01:57:31;;;;;;;18.90;9.10;;;;;;;-143.21;94.73;71457.50;5058119;28;20233;-78
2023/06/13 02:00:03;;;;;;;12.43;8.98;;;;;;;-143.21;94.71;71455.53;5057529;28;20629;-77
2023/06/13 02:02:31;;;;;;;14.93;9.43;;;;;;;-143.21;94.60;71467.41;5056903;28;20206;-78
2023/06/13 02:04:58;;;;;;;16.07;9.30;;;;;;;-143.21;95.32;71469.41;5050195;28;20210;-77
2023/06/13 02:07:24;;;;;;;15.33;9.23;;;;;;;-143.21;95.92;71471.38;5050333;28;20209;-78
2023/06/13 02:09:51;;;;;;;15.03;9.57;;;;;;;-143.21;96.15;71475.34;5051864;28;20225;-78
2023/06/13 02:12:18;;;;;;;17.07;9.47;;;;;;;-143.21;96.29;71469.41;5050503;28;20205;-78
2023/06/13 02:14:45;;;;;;;16.23;9.27;;;;;;;-143.21;96.52;71477.34;5052635;28;20668;-77
2023/06/13 02:17:14;;;;;;;16.07;9.70;;;;;;;-143.21;96.07;71479.31;5057666;28;20606;-77
2023/06/13 02:19:41;;;;;;;15.03;9.53;;;;;;;-143.21;96.19;71489.22;5046965;28;20298;-77
2023/06/13 02:22:08;;;;;;;25.30;17.80;;;;;;;-143.21;96.06;71495.19;5056671;28;20201;-77
2023/06/13 02:24:35;;;;;;;26.83;16.63;;;;;;;-143.21;95.72;71515.00;5049462;28;20213;-78
2023/06/13 02:27:02;;;;;;;20.13;14.17;;;;;;;-143.21;96.12;71516.97;5050028;28;20216;-78
2023/06/13 02:29:31;;;;;;;20.40;16.30;;;;;;;-143.21;96.57;71530.88;5056160;28;20214;-77
2023/06/13 02:31:58;;;;;;;28.03;17.37;;;;;;;-143.21;96.73;71554.66;5048966;28;20298;-78
2023/06/13 02:34:26;;;;;;;31.27;19.17;;;;;;;-143.21;97.22;71560.59;5053761;28;20234;-78
2023/06/13 02:36:53;;;;;;;28.63;17.90;;;;;;;-143.21;97.85;71572.50;5053862;28;20205;-79
2023/06/13 02:39:20;;;;;;;26.40;16.47;;;;;;;-143.21;98.39;71580.44;5050416;28;20649;-77
2023/06/13 02:41:47;;;;;;;20.53;16.43;;;;;;;-143.21;99.22;71588.38;5056402;28;20216;-78
2023/06/13 02:44:13;;;;;;;26.63;17.93;;;;;;;-143.21;99.82;71574.47;5057129;28;20636;-77
2023/06/13 02:46:40;;;;;;;28.43;17.37;;;;;;;-143.21;99.51;71580.44;5052975;28;20202;-78
2023/06/13 02:49:07;;;;;;;27.17;19.20;;;;;;;-143.21;99.21;71578.44;5046139;28;20201;-78
2023/06/13 02:51:35;;;;;;;28.63;18.93;;;;;;;-143.21;98.62;71584.41;5052492;28;20220;-78
2023/06/13 02:54:02;;;;;;;30.87;19.17;;;;;;;-143.21;98.12;71586.38;5052838;28;20268;-77
2023/06/13 02:56:29;;;;;;;29.00;17.13;;;;;;;-143.21;97.68;71594.31;5049235;28;20244;-78
2023/06/13 02:58:56;;;;;;;23.10;12.73;;;;;;;-143.21;98.11;71604.22;5049249;28;20253;-78
2023/06/13 03:01:23;;;;;;;17.00;11.87;;;;;;;-143.21;97.88;71608.19;5052403;28;20202;-77
2023/06/13 03:03:52;;;;;;;19.13;11.10;;;;;;;-143.21;97.42;71622.06;5049044;28;20201;-77
2023/06/13 03:06:19;;;;;;;17.43;9.93;;;;;;;-143.21;97.88;71630.00;5049872;28;20212;-77
2023/06/13 03:08:49;;;;;;;13.90;9.03;;;;;;;-143.21;97.77;71641.91;5064025;28;20201;-84
2023/06/13 03:11:16;;;;;;;9.67;8.07;;;;;;;-143.21;97.08;71645.88;5061259;28;20213;-85
2023/06/13 03:13:43;;;;;;;12.70;8.37;;;;;;;-143.21;97.45;71665.69;5065387;28;20212;-84
2023/06/13 03:16:10;;;;;;;13.63;9.10;;;;;;;-143.21;97.93;71669.66;5061922;28;20205;-86
2023/06/13 03:18:37;;;;;;;13.43;8.87;;;;;;;-143.21;98.81;71675.59;5060985;28;20249;-85
2023/06/13 03:21:04;;;;;;;12.27;9.30;;;;;;;-143.21;98.77;71669.66;5057153;28;20210;-84
2023/06/13 03:23:31;;;;;;;9.63;8.63;;;;;;;-143.21;98.54;71673.63;5054359;28;20202;-85
2023/06/13 03:26:00;;;;;;;16.20;9.47;;;;;;;-143.21;98.95;71665.69;5051995;28;20198;-85
2023/06/13 03:28:27;;;;;;;12.60;9.23;;;;;;;-143.21;99.78;71659.75;5051918;28;20285;-86
2023/06/13 03:30:57;;;;;;;16.23;9.33;;;;;;;-143.21;99.78;71639.91;5051615;28;20198;-85
2023/06/13 03:33:24;;;;;;;13.40;9.53;;;;;;;-143.21;99.69;71635.94;5050739;28;20238;-85
2023/06/13 03:35:52;;;;;;;16.87;10.67;;;;;;;-143.21;99.16;71618.09;5053993;28;20198;-85
2023/06/13 03:38:22;;;;;;;18.33;10.77;;;;;;;-143.21;98.83;71616.13;5049789;28;20276;-85
2023/06/13 03:40:48;;;;;;;19.60;10.30;;;;;;;-143.21;98.48;71616.13;5048766;28;20202;-85
2023/06/13 03:43:17;;;;;;;16.43;10.57;;;;;;;-143.21;98.25;71620.09;5053491;28;20562;-84
2023/06/13 03:45:43;;;;;;;15.83;10.80;;;;;;;-143.21;98.14;71622.06;5052318;28;20201;-88
2023/06/13 03:48:10;;;;;;;17.63;11.50;;;;;;;-143.21;98.53;71620.09;5054824;28;20206;-88
2023/06/13 03:50:37;;;;;;;21.33;11.70;;;;;;;-143.21;98.53;71622.06;5052734;28;20209;-87
2023/06/13 03:53:04;;;;;;;21.43;12.77;;;;;;;-143.21;99.11;71626.03;5053509;28;20264;-89
2023/06/13 03:55:31;;;;;;;22.47;12.73;;;;;;;-143.21;99.06;71622.06;5049900;28;20206;-81
2023/06/13 03:57:58;;;;;;;22.83;13.17;;;;;;;-143.21;98.92;71628.00;5052833;28;20226;-81
2023/06/13 04:00:27;;;;;;;19.07;13.10;;;;;;;-143.21;98.93;71630.00;5048786;28;20694;-81
2023/06/13 04:02:55;;;;;;;30.17;14.33;;;;;;;-143.21;98.82;71620.09;5052115;28;20209;-81
2023/06/13 04:05:23;;;;;;;22.40;14.77;;;;;;;-143.21;98.15;71610.16;5049152;28;20657;-81
2023/06/13 04:07:53;;;;;;;33.80;14.97;;;;;;;-143.21;97.54;71604.22;5049754;28;20225;-81
2023/06/13 04:10:20;;;;;;;20.77;14.70;;;;;;;-143.21;97.38;71610.16;5053690;28;20259;-79
2023/06/13 04:12:47;;;;;;;28.73;15.57;;;;;;;-143.21;97.51;71616.13;5048765;28;20214;-81
2023/06/13 04:15:14;;;;;;;23.37;15.33;;;;;;;-143.21;97.83;71604.22;5053215;28;20198;-80
2023/06/13 04:17:42;;;;;;;24.13;15.93;;;;;;;-143.21;97.77;71596.28;5045710;28;20222;-80
2023/06/13 04:20:10;;;;;;;24.00;14.87;;;;;;;-143.21;96.97;71598.28;5045070;28;20649;-79
2023/06/13 04:22:37;;;;;;;22.83;15.70;;;;;;;-143.21;96.62;71598.28;5048194;28;20241;-79
2023/06/13 04:25:04;;;;;;;20.07;15.37;;;;;;;-143.21;96.70;71592.31;5060233;28;20197;-79
2023/06/13 04:27:32;;;;;;;21.40;15.23;;;;;;;-143.21;96.88;71588.38;5049764;28;20249;-78
2023/06/13 04:29:59;;;;;;;21.33;15.53;;;;;;;-143.21;96.61;71582.41;5053553;28;20259;-79
2023/06/13 04:32:26;;;;;;;22.73;15.60;;;;;;;-143.21;96.67;71584.41;5052234;28;20234;-80
2023/06/13 04:34:55;;;;;;;23.73;15.87;;;;;;;-143.21;96.74;71582.41;5053430;28;20227;-79
2023/06/13 04:37:23;;;;;;;24.83;16.50;;;;;;;-143.21;97.55;71586.38;5048346;28;20206;-79
2023/06/13 04:39:51;;;;;;;24.23;15.60;;;;;;;-143.21;97.70;71574.47;5050932;28;20232;-79
2023/06/13 04:42:24;;;;;;;22.97;16.20;;;;;;;-143.21;97.34;71570.53;5050949;28;20288;-79
2023/06/13 04:44:53;;;;;;;24.37;15.87;;;;;;;-143.21;97.48;71574.47;5047649;28;20198;-78
2023/06/13 04:47:21;;;;;;;30.70;17.03;;;;;;;-143.21;97.79;71582.41;5054916;28;20263;-80
2023/06/13 04:49:48;;;;;;;24.00;17.47;;;;;;;-143.21;97.43;71574.47;5047627;28;20236;-80
2023/06/13 04:52:18;;;;;;;26.73;18.17;;;;;;;-143.21;97.62;71582.41;5056102;28;20667;-79
2023/06/13 04:54:45;;;;;;;26.33;17.10;;;;;;;-143.21;97.62;71586.38;5053757;28;20204;-79
2023/06/13 04:57:13;;;;;;;30.07;17.77;;;;;;;-143.21;97.12;71594.31;5051506;28;20657;-79
2023/06/13 04:59:40;;;;;;;32.97;17.73;;;;;;;-143.21;96.40;71590.34;5054415;28;20250;-78
2023/06/13 05:02:07;;;;;;;27.30;17.40;;;;;;;-143.21;96.01;71584.41;5053744;28;20205;-79
2023/06/13 05:04:36;;;;;;;30.10;17.57;;;;;;;-143.21;95.98;71590.34;5053772;28;20198;-80
2023/06/13 05:07:06;;;;;;;25.97;16.77;;;;;;;-143.21;96.34;71586.38;5051649;28;20210;-80
2023/06/13 05:09:34;;;;;;;25.07;16.40;;;;;;;-143.21;95.09;71580.44;5063212;28;20229;-80
2023/06/13 05:12:01;;;;;;;25.07;16.27;;;;;;;-143.21;94.72;71586.38;5061242;28;20214;-80
2023/06/13 05:14:40;;;;;;;24.27;16.93;;;;;;;-143.21;94.94;71580.44;5055041;28;20202;-80
2023/06/13 05:17:07;;;;;;;25.23;15.87;;;;;;;-143.21;94.15;71574.47;5056595;28;20216;-79
2023/06/13 05:19:35;;;;;;;26.40;17.07;;;;;;;-143.21;94.55;71558.63;5053701;28;20304;-80
2023/06/13 05:22:04;;;;;;;22.03;16.07;;;;;;;-143.21;94.07;71542.75;5061482;28;20300;-79
2023/06/13 05:24:31;;;;;;;22.57;14.90;;;;;;;-143.21;93.54;71534.81;5057504;28;21725;-79
2023/06/13 05:26:59;;;;;;;21.87;15.33;;;;;;;-143.21;93.36;71522.94;5053885;28;20285;-79
2023/06/13 05:29:26;;;;;;;23.47;14.67;;;;;;;-143.21;93.25;71511.03;5055954;28;20194;-79
2023/06/13 05:31:53;;;;;;;21.20;15.20;;;;;;;-143.21;91.94;71503.09;5051815;28;20329;-80
2023/06/13 05:34:21;;;;;;;21.03;15.27;;;;;;;-143.21;91.68;71499.13;5058004;28;20201;-79
2023/06/13 05:36:48;;;;;;;23.67;14.97;;;;;;;-143.21;92.04;71487.25;5054275;28;20652;-79
2023/06/13 05:39:15;;;;;;;24.67;15.40;;;;;;;-143.21;92.52;71473.38;5056523;28;20709;-80
2023/06/13 05:41:42;;;;;;;20.93;13.80;;;;;;;-143.21;92.34;71455.53;5050028;28;20205;-78
2023/06/13 05:44:13;;;;;;;23.15;13.50;;;;;;;-143.21;92.05;71447.59;5050356;28;20206;-80
2023/06/13 05:46:39;;;;;;;17.30;12.87;;;;;;;-143.21;90.68;71439.66;5056807;28;20205;-85
2023/06/13 05:49:06;;;;;;;19.23;14.15;;;;;;;-143.21;90.81;71431.72;5051890;28;20205;-85
2023/06/13 05:51:33;;;;;;;19.67;13.35;;;;;;;-143.21;89.68;71419.84;5053754;28;20210;-85
2023/06/13 05:54:00;;;;;;;20.52;12.30;;;;;;;-143.21;88.40;71409.91;5049729;28;20348;-85
2023/06/13 05:56:27;;;;;;;17.10;11.85;;;;;;;-143.21;86.96;71398.03;5053207;28;20194;-85
2023/06/13 05:58:53;;;;;;;17.23;11.85;;;;;;;-143.21;86.28;71380.19;5050769;28;20229;-86
2023/06/13 06:01:22;;;;;;;18.20;11.10;;;;;;;-143.21;83.16;71368.28;5051186;28;20206;-85
2023/06/13 06:03:49;;;;;;;14.68;11.38;;;;;;;-143.21;82.48;71356.38;5054098;28;20221;-80
2023/06/13 06:06:15;;;;;;;17.40;10.98;;;;;;;-143.21;82.89;71340.53;5054672;28;20568;-78
2023/06/13 06:08:42;;;;;;;16.90;11.18;;;;;;;-143.21;82.84;71326.66;5050563;28;20203;-79
2023/06/13 06:11:09;;;;;;;12.95;10.77;;;;;;;-143.21;82.81;71310.78;5053650;28;20217;-80
2023/06/13 06:13:36;;;;;;;12.85;10.50;;;;;;;-143.21;82.07;71296.91;5053076;28;20210;-85
2023/06/13 06:16:03;;;;;;;15.57;9.20;;;;;;;-143.21;81.38;71292.94;5053925;28;20534;-86
2023/06/13 06:18:32;;;;;;;13.35;9.80;;;;;;;-143.21;80.29;71281.06;5054902;28;20225;-86
2023/06/13 06:20:59;;;;;;;9.35;7.32;;;;;;;-143.21;80.41;71287.00;5049723;28;20555;-85
2023/06/13 06:23:25;;;;;;;10.20;7.68;;;;;;;-143.21;79.63;71296.91;5054970;28;20198;-86
2023/06/13 06:25:52;;;;;;;11.70;7.60;;;;;;;-143.21;80.16;71283.03;5054847;28;20247;-87
2023/06/13 06:28:19;;;;;;;9.18;7.15;;;;;;;-143.21;79.82;71287.00;5050255;28;20213;-86
2023/06/13 06:30:46;;;;;;;8.10;6.90;;;;;;;-143.21;79.10;71273.13;5057934;28;20194;-86
2023/06/13 06:33:12;;;;;;;7.75;6.43;;;;;;;-143.21;78.48;71269.16;5049661;28;20662;-83
2023/06/13 06:35:41;;;;;;;7.80;6.90;;;;;;;-143.21;79.51;71255.28;5053650;28;20221;-81
2023/06/13 06:38:08;;;;;;;9.40;7.40;;;;;;;-143.21;79.48;71249.34;5051619;28;20194;-81
2023/06/13 06:40:35;;;;;;;11.02;7.32;;;;;;;-143.21;79.45;71245.38;5049789;28;20591;-82
2023/06/13 06:43:01;;;;;;;11.15;7.95;;;;;;;-143.21;80.08;71233.47;5052755;28;20213;-81
2023/06/13 06:45:28;;;;;;;16.23;11.60;;;;;;;-143.21;78.73;71237.44;5049295;28;21485;-80
2023/06/13 06:47:56;;;;;;;20.77;11.40;;;;;;;-143.21;78.09;71231.50;5050948;28;20198;-82
2023/06/13 06:50:22;;;;;;;16.00;11.23;;;;;;;-143.21;77.71;71227.53;5053139;28;20201;-80
2023/06/13 06:52:51;;;;;;;15.90;11.23;;;;;;;-143.21;75.58;71221.56;5052409;28;20194;-80
2023/06/13 06:55:17;;;;;;;21.27;11.80;;;;;;;-143.21;76.80;71237.44;5049829;28;20205;-79
2023/06/13 06:57:44;;;;;;;17.35;11.32;;;;;;;-143.21;77.00;71241.41;5050091;28;20225;-80
2023/06/13 07:00:14;;;;;;;20.98;12.80;;;;;;;-143.21;76.31;71243.38;5049146;28;20248;-81
2023/06/13 07:02:44;;;;;;;18.20;12.15;;;;;;;-143.21;77.37;71243.38;5051802;28;20210;-79
2023/06/13 07:05:11;;;;;;;14.55;12.13;;;;;;;-143.21;78.50;71239.41;5048286;28;20202;-78
2023/06/13 07:07:38;;;;;;;23.67;13.13;;;;;;;-143.21;78.26;71249.34;5049789;28;20208;-77
2023/06/13 07:10:08;;;;;;;18.50;12.82;;;;;;;-143.21;78.99;71261.22;5047684;28;20211;-79
2023/06/13 07:12:36;;;;;;;22.17;13.15;;;;;;;-143.21;78.71;71255.28;5050822;28;20201;-78
2023/06/13 07:15:04;;;;;;;19.63;11.63;;;;;;;-143.21;79.08;71257.25;5051460;28;20205;-79
2023/06/13 07:17:31;;;;;;;14.70;11.73;;;;;;;-143.21;78.64;71241.41;5052621;28;20280;-79
2023/06/13 07:19:58;;;;;;;15.85;11.65;;;;;;;-143.21;79.04;71231.50;5052205;28;20313;-78
2023/06/13 07:22:31;;;;;;;13.82;10.88;;;;;;;-143.21;79.66;71217.59;5059839;28;20213;-82
2023/06/13 07:24:58;;;;;;;16.73;10.98;;;;;;;-143.21;79.15;71195.81;5049247;28;20200;-80
2023/06/13 07:27:27;;;;;;;15.70;11.23;;;;;;;-143.21;77.85;71181.94;5054303;28;20200;-79
2023/06/13 07:29:54;;;;;;;13.75;10.02;;;;;;;-143.21;76.37;71162.09;5053332;28;20196;-79
2023/06/13 07:32:21;;;;;;;11.95;9.88;;;;;;;-143.21;75.52;71140.28;5047309;28;20229;-77
2023/06/13 07:34:47;;;;;;;15.93;9.85;;;;;;;-143.21;74.75;71158.13;5053497;28;20201;-77
2023/06/13 07:37:14;;;;;;;13.55;10.15;;;;;;;-143.21;74.99;71172.00;5056408;28;20221;-78
2023/06/13 07:39:41;;;;;;;15.38;11.63;;;;;;;-143.21;75.75;71179.94;5056735;28;20221;-78
2023/06/13 07:42:10;;;;;;;13.57;10.48;;;;;;;-143.21;75.25;71181.94;5054730;28;20204;-79
2023/06/13 07:44:39;;;;;;;12.13;9.98;;;;;;;-143.21;75.11;71179.94;5055033;28;20264;-78
2023/06/13 07:47:06;;;;;;;12.93;9.18;;;;;;;-143.21;75.46;71174.00;5056895;28;20288;-78
2023/06/13 07:49:33;;;;;;;18.10;9.70;;;;;;;-143.21;74.55;71162.09;5048137;28;20284;-78
2023/06/13 07:52:00;;;;;;;13.00;8.98;;;;;;;-143.21;74.64;71158.13;5053676;28;20247;-78
2023/06/13 07:54:27;;;;;;;16.42;9.88;;;;;;;-143.21;73.65;71150.22;5058766;28;20653;-78
2023/06/13 07:56:55;;;;;;;12.98;9.73;;;;;;;-143.21;73.20;71162.09;5051035;28;20220;-78
2023/06/13 07:59:21;;;;;;;13.93;10.35;;;;;;;-143.21;73.88;71168.06;5048871;28;20304;-78
2023/06/13 08:01:50;;;;;;;14.02;11.00;;;;;;;-143.21;74.17;71172.00;5051559;28;20728;-78
2023/06/13 08:04:17;;;;;;;18.20;11.45;;;;;;;-143.21;73.09;71160.13;5053488;28;20209;-79
2023/06/13 08:06:44;;;;;;;18.05;11.05;;;;;;;-143.21;73.54;71142.28;5048097;28;20241;-78
2023/06/13 08:09:11;;;;;;;16.33;10.60;;;;;;;-143.21;73.97;71134.34;5054773;28;20193;-78
2023/06/13 08:11:40;;;;;;;14.02;9.65;;;;;;;-143.21;74.37;71130.38;5051728;28;20202;-78
2023/06/13 08:14:12;;;;;;;17.17;10.20;;;;;;;-143.21;74.91;71118.50;5048917;28;20285;-79
2023/06/13 08:16:39;;;;;;;14.60;11.40;;;;;;;-143.21;73.44;71112.53;5053886;28;20422;-79
2023/06/13 08:19:08;;;;;;;17.55;11.88;;;;;;;-143.21;73.43;71114.53;5057591;28;20217;-78
2023/06/13 08:21:35;;;;;;;15.70;10.95;;;;;;;-143.21;72.94;71124.44;5047347;28;20218;-79
2023/06/13 08:24:25;;;;;;;16.65;11.80;;;;;;;-143.21;73.82;71126.41;5056344;28;20720;-80
2023/06/13 08:26:53;;;;;;;17.70;10.98;;;;;;;-143.21;73.49;71118.50;5053634;28;20220;-78
2023/06/13 08:29:20;;;;;;;17.58;12.27;;;;;;;-143.21;73.99;71114.53;5056306;28;20198;-79
2023/06/13 08:31:47;;;;;;;14.77;11.07;;;;;;;-143.21;74.22;71098.66;5056176;28;20234;-79
2023/06/13 08:34:15;;;;;;;18.70;10.88;;;;;;;-143.21;74.38;71094.69;5056223;28;20208;-79
2023/06/13 08:36:42;;;;;;;15.35;10.43;;;;;;;-143.21;73.89;71078.84;5049613;28;20209;-78
2023/06/13 08:39:09;;;;;;;17.05;11.02;;;;;;;-143.21;73.76;71070.91;5057352;28;20228;-80
2023/06/13 08:41:37;;;;;;;15.95;10.95;;;;;;;-143.21;72.79;71061.00;5051479;28;20633;-79
2023/06/13 08:44:04;;;;;;;17.45;10.50;;;;;;;-143.21;73.91;71047.13;5051741;28;20206;-79
2023/06/13 08:46:32;;;;;;;17.25;11.45;;;;;;;-143.21;73.57;71045.13;5055072;28;20209;-79
2023/06/13 08:49:01;;;;;;;16.20;11.75;;;;;;;-143.21;72.17;71043.16;5056060;28;20206;-79
2023/06/13 08:51:31;;;;;;;16.98;12.15;;;;;;;-143.21;72.83;71041.16;5054470;28;20205;-80
2023/06/13 08:54:02;;;;;;;21.50;11.98;;;;;;;-143.21;72.88;71049.09;5055472;28;20209;-80
2023/06/13 08:56:32;;;;;;;18.92;12.40;;;;;;;-143.21;73.10;71068.94;5054050;28;20724;-80
2023/06/13 08:59:05;;;;;;;18.13;11.63;;;;;;;-143.21;72.82;71070.91;5052885;28;20213;-80
2023/06/13 09:01:32;;;;;;;16.83;12.48;;;;;;;-143.21;72.97;71072.88;5057727;28;20198;-80
2023/06/13 09:04:01;;;;;;;18.25;11.20;;;;;;;-143.21;72.88;71076.84;5056122;28;20220;-80
2023/06/13 09:06:33;;;;;;;13.57;10.20;;;;;;;-143.21;73.44;71086.75;5051617;28;20202;-80
2023/06/13 09:09:02;;;;;;;18.38;9.90;;;;;;;-143.21;74.23;71072.88;5056814;28;20201;-76
2023/06/13 09:11:29;;;;;;;12.27;8.93;;;;;;;-143.21;74.25;71070.91;5054171;28;20209;-76
2023/06/13 09:13:59;;;;;;;13.80;7.63;;;;;;;-143.21;74.21;71064.97;5055696;28;20205;-76
2023/06/13 09:16:27;;;;;;;11.65;7.82;;;;;;;-143.21;75.04;71066.94;5057293;28;20232;-77
2023/06/13 09:18:54;;;;;;;9.45;7.60;;;;;;;-143.21;74.67;71080.81;5053303;28;20210;-77
2023/06/13 09:21:21;;;;;;;11.27;7.95;;;;;;;-143.21;74.74;71072.88;5054411;28;20213;-76
2023/06/13 09:23:50;;;;;;;11.60;8.00;;;;;;;-143.21;74.64;71084.78;5056663;28;20197;-77
2023/06/13 09:26:17;;;;;;;10.25;7.60;;;;;;;-143.21;74.50;71104.59;5058393;28;20296;-77
2023/06/13 09:28:47;;;;;;;13.90;8.65;;;;;;;-143.21;75.30;71118.50;5053757;28;20753;-78
2023/06/13 09:31:14;;;;;;;9.57;7.53;;;;;;;-143.21;76.22;71120.47;5054862;28;20304;-77
2023/06/13 09:33:44;;;;;;;10.10;7.53;;;;;;;-143.21;76.33;71122.44;5045550;28;20322;-77
2023/06/13 09:36:12;;;;;;;11.63;7.45;;;;;;;-143.21;76.55;71122.44;5045529;28;20630;-78
2023/06/13 09:38:41;;;;;;;9.98;7.80;;;;;;;-143.21;77.97;71124.44;5052341;28;20194;-77
2023/06/13 09:41:11;;;;;;;12.15;8.35;;;;;;;-143.21;78.76;71126.41;5053036;28;20218;-77
2023/06/13 09:43:39;;;;;;;10.73;8.13;;;;;;;-143.21;78.54;71116.50;5054008;28;20213;-77
2023/06/13 09:46:07;;;;;;;9.18;7.40;;;;;;;-143.21;77.77;71120.47;5059594;28;20205;-77
2023/06/13 09:48:34;;;;;;;11.73;8.40;;;;;;;-143.21;78.84;71116.50;5058192;28;20210;-76
2023/06/13 09:51:04;;;;;;;10.00;8.45;;;;;;;-143.21;79.57;71116.50;5053750;28;20218;-76
2023/06/13 09:53:31;;;;;;;14.10;8.30;;;;;;;-143.21;80.03;71112.53;5054509;28;20220;-77
2023/06/13 09:55:58;;;;;;;14.32;8.55;;;;;;;-143.21;80.36;71102.63;5053132;28;20205;-76
2023/06/13 09:58:26;;;;;;;12.15;7.88;;;;;;;-143.21;80.07;71086.75;5050937;28;20213;-76
2023/06/13 10:00:57;;;;;;;11.52;8.82;;;;;;;-143.21;79.69;71068.94;5053679;28;20236;-76
2023/06/13 10:03:25;;;;;;;13.02;8.80;;;;;;;-143.21;79.46;71061.00;5051300;28;20229;-77
2023/06/13 10:05:52;;;;;;;10.52;8.65;;;;;;;-143.21;78.25;71057.03;5048709;28;20340;-77
2023/06/13 10:08:20;;;;;;;12.00;8.80;;;;;;;-143.21;77.48;71057.03;5053667;28;20210;-78
2023/06/13 10:10:47;;;;;;;9.98;8.52;;;;;;;-143.21;77.48;71047.13;5050201;28;20205;-78
2023/06/13 10:13:18;;;;;;;13.73;8.68;;;;;;;-143.21;76.90;71043.16;5049655;28;20206;-77
2023/06/13 10:15:52;;;;;;;14.85;8.88;;;;;;;-143.21;76.48;71039.19;5049200;28;20727;-77
2023/06/13 10:18:22;;;;;;;15.50;8.90;;;;;;;-143.21;76.83;71037.22;5053092;28;20202;-77
2023/06/13 10:20:49;;;;;;;15.48;8.80;;;;;;;-143.21;76.82;71033.25;5053002;28;20232;-78
2023/06/13 10:23:19;;;;;;;15.70;9.25;;;;;;;-143.21;76.96;71031.25;5052177;28;20200;-78
2023/06/13 10:26:03;;;;;;;13.93;9.63;;;;;;;-143.21;76.86;71029.28;5057602;28;20260;-78
2023/06/13 10:28:47;;;;;;;13.07;9.13;;;;;;;-143.21;77.14;71029.28;5049874;28;20885;-79
2023/06/13 10:31:29;;;;;;;14.10;9.63;;;;;;;-143.21;77.56;71023.34;5046933;28;20677;-78
2023/06/13 10:34:15;;;;;;;16.23;9.98;;;;;;;-143.21;77.66;71027.28;5053974;28;20198;-78
2023/06/13 10:37:08;;;;;;;12.63;10.32;;;;;;;-143.21;77.11;71019.38;5057699;28;20202;-79
2023/06/13 10:39:54;;;;;;;14.98;9.55;;;;;;;-143.21;76.59;71027.28;5052734;28;20695;-76
2023/06/13 10:42:25;;;;;;;13.27;9.48;;;;;;;-143.21;76.83;71033.25;5047990;28;21473;-79
2023/06/13 10:44:59;;;;;;;12.50;9.63;;;;;;;-143.21;77.55;71035.22;5058407;28;20228;-78
2023/06/13 10:47:29;;;;;;;17.40;10.00;;;;;;;-143.21;77.58;71037.22;5054068;28;20284;-79
2023/06/13 10:49:58;;;;;;;11.95;9.10;;;;;;;-143.21;77.51;71031.25;5053031;28;20205;-79
2023/06/13 10:52:25;;;;;;;12.07;9.00;;;;;;;-143.21;77.64;71023.34;5054793;28;20677;-80
2023/06/13 10:54:56;;;;;;;14.57;9.77;;;;;;;-143.21;77.72;71027.28;5052076;28;20206;-81
2023/06/13 10:57:23;;;;;;;16.02;9.80;;;;;;;-143.21;78.06;71027.28;5048037;28;20210;-82
2023/06/13 10:59:50;;;;;;;11.20;8.75;;;;;;;-143.21;77.48;71029.28;5049722;28;20234;-82
2023/06/13 11:02:19;;;;;;;20.83;9.60;;;;;;;-143.21;77.56;71021.34;5051891;28;20206;-81
2023/06/13 11:04:50;;;;;;;13.88;9.02;;;;;;;-143.21;77.23;71015.41;5051800;28;20743;-81
2023/06/13 11:07:28;;;;;;;13.05;9.13;;;;;;;-143.21;76.30;71003.50;5051094;28;20289;-80
2023/06/13 11:10:11;;;;;;;14.57;9.70;;;;;;;-143.21;74.87;71003.50;5056973;28;20197;-81
2023/06/13 11:12:38;;;;;;;16.13;8.88;;;;;;;-143.21;74.93;70983.69;5057771;28;20300;-82